メインページ
METAR-TAF:

METAR-TAF

空港 :

トンコンティン国際空港

テグシガルパ, ホンジュラス

緯度: 14-03N, 経度: 087-13W, 海抜: 994m

現時点の気象観測

当レポートは21分前の03:00(UTC)に作成
北/北東の風 4kt
気温 21°C
湿度 64%
気圧 1021 hPa
視程10km以上
高度3000ftの千切れ雲あり

METAR: MHTG 150300Z 03004KT 9999 BKN030 21/14 Q1021 A3015 NOSIG

時間: 21:21 (03:21 UTC)

予報

当レポートは4時間1分前の23:20(UTC)に作成
予報は15日の 00時(UTC)から 15日の 24時(UTC)まで有効
の風 5kt
視程10km以上
高度3000ftの雲は散在している
15日の 10時(UTC)から 15日の 12時(UTC)まで徐々に
の風 kt
高度1000ftの雲はほとんどない
高度2400ftの雲は散在している
15日の 15時(UTC)から 15日の 17時(UTC)まで徐々に
の風 10kt、最大20ktの突風を伴う
高度2800ftの雲は散在している, 塔状積雲.
高度9000ftの雲は散在している

TAF: MHTG 142320Z 1500/1524 36005KT 9999 SCT030 TX25/1519Z TN14/1512Z BECMG 1510/1512 00000KT FEW010 SCT024 BECMG 1515/1517 36010G20KT SCT028TCU SCT090

4,000以上の空港の気象観測と天気予報(METAR報とTAF報)

利用可能な観測所は地図上に黄色い丸と赤い丸で示す。

丸の上にカーソルを重ねると観測所名を参照できる。

次にクリックすると気象観測と天気予報を参照できる。

マップの切り替え:黒色「×」印の緑ボタンをクリックして拡大、「-」印の緑ボタンをクリックして縮小、緑色の三角印をクリックして隣りの地図に切り替え


METAR-TAF: